Time;durP1;ratioP1;P1;durP2;ratioP2;P2;SDS_P1;SDS_P2;PMS_P1;PMS_P2;Temp;Humidity;BMP_temperature;BMP_pressure;BME280_temperature;BME280_humidity;BME280_pressure;Samples;Min_cycle;Max_cycle;Signal;HPM_P1;HPM_P2
2024/01/10 00:01:50;;;;;;;0.10;0.10;;;;;;;;;;5089048;28;20028;-73
2024/01/10 00:04:16;;;;;;;0.57;0.57;;;;;;;;;;5088308;28;20024;-75
2024/01/10 00:06:42;;;;;;;0.10;0.10;;;;;;;;;;5088010;28;20065;-73
2024/01/10 00:09:08;;;;;;;0.10;0.10;;;;;;;;;;5088344;28;20506;-74
2024/01/10 00:11:34;;;;;;;0.30;0.30;;;;;;;;;;5072435;28;20040;-76
2024/01/10 00:13:59;;;;;;;0.28;0.28;;;;;;;;;;5069684;28;20027;-78
2024/01/10 00:16:25;;;;;;;1.25;0.70;;;;;;;;;;5070630;28;20021;-73
2024/01/10 00:18:51;;;;;;;2.03;1.42;;;;;;;;;;5072833;28;20033;-73
2024/01/10 00:21:16;;;;;;;0.98;0.95;;;;;;;;;;5073096;28;20051;-73
2024/01/10 00:23:42;;;;;;;0.15;0.15;;;;;;;;;;5086517;28;20107;-73
2024/01/10 00:26:08;;;;;;;0.10;0.10;;;;;;;;;;5093286;28;20479;-72
2024/01/10 00:28:33;;;;;;;0.15;0.15;;;;;;;;;;5093265;28;20043;-73
2024/01/10 00:30:59;;;;;;;0.10;0.10;;;;;;;;;;5093129;28;20118;-74
2024/01/10 00:33:24;;;;;;;0.10;0.10;;;;;;;;;;5094881;28;20391;-74
2024/01/10 00:35:50;;;;;;;0.10;0.10;;;;;;;;;;5097168;28;20044;-73
2024/01/10 00:38:15;;;;;;;0.70;0.70;;;;;;;;;;5097062;28;20036;-74
2024/01/10 00:40:41;;;;;;;0.17;0.17;;;;;;;;;;5097005;28;20095;-74
2024/01/10 00:43:06;;;;;;;0.10;0.10;;;;;;;;;;5097004;28;20035;-73
2024/01/10 00:45:32;;;;;;;0.10;0.10;;;;;;;;;;5096814;28;20102;-73
2024/01/10 00:47:57;;;;;;;0.10;0.10;;;;;;;;;;5096985;28;20374;-73
2024/01/10 00:50:23;;;;;;;0.10;0.10;;;;;;;;;;5096961;28;20044;-73
2024/01/10 00:52:49;;;;;;;0.25;0.25;;;;;;;;;;5096863;28;20367;-73
2024/01/10 00:55:14;;;;;;;0.17;0.17;;;;;;;;;;5096954;28;20028;-73
2024/01/10 00:57:40;;;;;;;0.10;0.10;;;;;;;;;;5096638;28;20032;-73
2024/01/10 01:00:06;;;;;;;0.10;0.10;;;;;;;;;;5096909;28;20055;-73
2024/01/10 01:02:32;;;;;;;0.10;0.10;;;;;;;;;;5096495;28;20077;-73
2024/01/10 01:04:57;;;;;;;0.10;0.10;;;;;;;;;;5096890;28;20016;-75
2024/01/10 01:07:23;;;;;;;0.10;0.10;;;;;;;;;;5096081;28;20043;-74
2024/01/10 01:09:48;;;;;;;0.10;0.10;;;;;;;;;;5095972;28;20044;-74
2024/01/10 01:12:14;;;;;;;0.47;0.47;;;;;;;;;;5095261;28;20024;-73
2024/01/10 01:14:40;;;;;;;0.17;0.17;;;;;;;;;;5094994;28;20024;-74
2024/01/10 01:17:05;;;;;;;0.20;0.20;;;;;;;;;;5093682;28;20044;-74
2024/01/10 01:19:31;;;;;;;0.20;0.20;;;;;;;;;;5085364;28;20020;-73
2024/01/10 01:21:56;;;;;;;0.10;0.10;;;;;;;;;;5076224;28;20391;-73
2024/01/10 01:24:22;;;;;;;0.10;0.10;;;;;;;;;;5075970;28;20448;-73
2024/01/10 01:26:47;;;;;;;0.10;0.10;;;;;;;;;;5075688;28;20021;-75
2024/01/10 01:29:13;;;;;;;0.20;0.20;;;;;;;;;;5075612;28;20025;-74
2024/01/10 01:31:38;;;;;;;0.20;0.20;;;;;;;;;;5076005;28;20067;-74
2024/01/10 01:34:04;;;;;;;0.20;0.20;;;;;;;;;;5074350;28;20063;-73
2024/01/10 01:36:30;;;;;;;0.10;0.10;;;;;;;;;;5075674;28;20021;-73
2024/01/10 01:38:55;;;;;;;0.20;0.20;;;;;;;;;;5075874;28;20089;-72
2024/01/10 01:41:21;;;;;;;0.10;0.10;;;;;;;;;;5075592;28;20390;-72
2024/01/10 01:43:47;;;;;;;0.20;0.20;;;;;;;;;;5075190;28;20023;-73
2024/01/10 01:46:12;;;;;;;0.17;0.17;;;;;;;;;;5075591;28;20488;-73
2024/01/10 01:48:38;;;;;;;0.15;0.15;;;;;;;;;;5075650;28;20528;-74
2024/01/10 01:51:07;;;;;;;0.20;0.20;;;;;;;;;;5075233;28;20044;-74
2024/01/10 01:53:36;;;;;;;0.10;0.10;;;;;;;;;;5075752;28;20486;-74
2024/01/10 01:56:03;;;;;;;0.10;0.10;;;;;;;;;;5075425;28;20565;-74
2024/01/10 01:58:29;;;;;;;0.10;0.10;;;;;;;;;;5075024;28;20013;-73
2024/01/10 02:00:55;;;;;;;0.10;0.10;;;;;;;;;;5075308;28;20032;-73
2024/01/10 02:03:21;;;;;;;0.10;0.10;;;;;;;;;;5075651;28;20127;-73
2024/01/10 02:05:46;;;;;;;0.10;0.10;;;;;;;;;;5075342;28;20107;-73
2024/01/10 02:08:12;;;;;;;0.10;0.10;;;;;;;;;;5075244;28;20042;-74
2024/01/10 02:10:38;;;;;;;0.10;0.10;;;;;;;;;;5079984;28;20028;-74
2024/01/10 02:13:03;;;;;;;0.10;0.10;;;;;;;;;;5094993;28;20020;-74
2024/01/10 02:15:29;;;;;;;0.63;0.63;;;;;;;;;;5095033;28;20050;-73
2024/01/10 02:17:54;;;;;;;0.90;0.90;;;;;;;;;;5095269;28;20150;-75
2024/01/10 02:20:23;;;;;;;0.10;0.10;;;;;;;;;;5095223;28;20471;-73
2024/01/10 02:22:50;;;;;;;0.10;0.10;;;;;;;;;;5094656;28;20471;-72
2024/01/10 02:25:16;;;;;;;0.13;0.13;;;;;;;;;;5094305;28;20574;-74
2024/01/10 02:27:41;;;;;;;0.60;0.40;;;;;;;;;;5094876;28;20111;-73
2024/01/10 02:30:08;;;;;;;0.20;0.20;;;;;;;;;;5094911;28;20479;-74
2024/01/10 02:32:34;;;;;;;0.10;0.10;;;;;;;;;;5094899;28;20127;-74
2024/01/10 02:34:59;;;;;;;0.20;0.20;;;;;;;;;;5095419;28;20107;-74
2024/01/10 02:37:25;;;;;;;0.10;0.10;;;;;;;;;;5094893;28;20062;-73
2024/01/10 02:39:51;;;;;;;0.10;0.10;;;;;;;;;;5094734;28;20063;-74
2024/01/10 02:42:16;;;;;;;0.10;0.10;;;;;;;;;;5094597;28;20028;-74
2024/01/10 02:44:42;;;;;;;0.10;0.10;;;;;;;;;;5095308;28;20115;-74
2024/01/10 02:47:09;;;;;;;0.10;0.10;;;;;;;;;;5094677;28;20425;-74
2024/01/10 02:49:34;;;;;;;0.10;0.10;;;;;;;;;;5091608;28;20044;-74
2024/01/10 02:52:00;;;;;;;0.10;0.10;;;;;;;;;;5090753;28;20028;-74
2024/01/10 02:54:26;;;;;;;0.93;0.90;;;;;;;;;;5090924;28;20028;-77
2024/01/10 02:56:52;;;;;;;0.10;0.10;;;;;;;;;;5089417;28;20364;-74
2024/01/10 02:59:18;;;;;;;0.10;0.10;;;;;;;;;;5089771;28;20487;-73
2024/01/10 03:01:44;;;;;;;0.10;0.10;;;;;;;;;;5089370;28;20035;-73
2024/01/10 03:04:09;;;;;;;0.10;0.10;;;;;;;;;;5090253;28;20020;-74
2024/01/10 03:06:35;;;;;;;0.10;0.10;;;;;;;;;;5089189;28;20566;-73
2024/01/10 03:09:03;;;;;;;0.10;0.10;;;;;;;;;;5090229;28;20062;-74
2024/01/10 03:11:29;;;;;;;0.10;0.10;;;;;;;;;;5090359;28;20027;-72
2024/01/10 03:14:04;;;;;;;0.10;0.10;;;;;;;;;;5090497;28;20085;-72
2024/01/10 03:16:30;;;;;;;0.20;0.20;;;;;;;;;;5090173;28;20425;-73
2024/01/10 03:18:56;;;;;;;0.20;0.20;;;;;;;;;;5089723;28;20099;-73
2024/01/10 03:21:24;;;;;;;0.20;0.20;;;;;;;;;;5090218;28;20478;-74
2024/01/10 03:23:50;;;;;;;0.17;0.17;;;;;;;;;;5090416;28;20032;-73
2024/01/10 03:26:16;;;;;;;0.10;0.10;;;;;;;;;;5090439;28;20352;-74
2024/01/10 03:28:41;;;;;;;0.10;0.10;;;;;;;;;;5090271;28;20375;-74
2024/01/10 03:31:07;;;;;;;0.20;0.20;;;;;;;;;;5088446;28;20032;-73
2024/01/10 03:33:32;;;;;;;0.17;0.17;;;;;;;;;;5089898;28;20028;-73
2024/01/10 03:35:58;;;;;;;0.10;0.10;;;;;;;;;;5089919;28;20027;-73
2024/01/10 03:38:24;;;;;;;0.10;0.10;;;;;;;;;;5090148;28;20069;-73
2024/01/10 03:40:50;;;;;;;0.10;0.10;;;;;;;;;;5089874;28;20028;-74
2024/01/10 03:43:16;;;;;;;0.13;0.13;;;;;;;;;;5089697;28;20028;-74
2024/01/10 03:45:42;;;;;;;0.10;0.10;;;;;;;;;;5090035;28;20028;-73
2024/01/10 03:48:07;;;;;;;0.10;0.10;;;;;;;;;;5071690;28;20429;-73
2024/01/10 03:50:33;;;;;;;0.10;0.10;;;;;;;;;;5090102;28;20495;-74
2024/01/10 03:52:59;;;;;;;0.13;0.13;;;;;;;;;;5088366;28;20055;-73
2024/01/10 03:55:25;;;;;;;0.10;0.10;;;;;;;;;;5089812;28;20198;-74
2024/01/10 03:57:51;;;;;;;0.10;0.10;;;;;;;;;;5089740;28;20459;-74
2024/01/10 04:00:17;;;;;;;0.10;0.10;;;;;;;;;;5089708;28;20483;-73
2024/01/10 04:02:43;;;;;;;0.10;0.10;;;;;;;;;;5088441;28;20387;-73
2024/01/10 04:05:11;;;;;;;0.20;0.20;;;;;;;;;;5089830;28;20091;-73
2024/01/10 04:07:39;;;;;;;0.10;0.10;;;;;;;;;;5092997;28;20036;-76
2024/01/10 04:10:07;;;;;;;0.10;0.10;;;;;;;;;;5093947;28;20055;-74
2024/01/10 04:12:33;;;;;;;0.20;0.20;;;;;;;;;;5093719;28;20036;-75
2024/01/10 04:14:59;;;;;;;0.20;0.20;;;;;;;;;;5093242;28;20421;-75
2024/01/10 04:17:24;;;;;;;0.10;0.10;;;;;;;;;;5093745;28;20050;-74
2024/01/10 04:19:50;;;;;;;0.10;0.10;;;;;;;;;;5093618;28;20020;-74
2024/01/10 04:22:16;;;;;;;0.20;0.20;;;;;;;;;;5093502;28;20498;-74
2024/01/10 04:24:42;;;;;;;0.10;0.10;;;;;;;;;;5093568;28;20024;-73
2024/01/10 04:27:08;;;;;;;0.10;0.10;;;;;;;;;;5093638;28;20024;-73
2024/01/10 04:29:33;;;;;;;0.63;0.63;;;;;;;;;;5093156;28;20795;-72
2024/01/10 04:31:59;;;;;;;0.20;0.20;;;;;;;;;;5092208;28;20070;-73
2024/01/10 04:34:25;;;;;;;0.10;0.10;;;;;;;;;;5093450;28;20031;-73
2024/01/10 04:36:51;;;;;;;0.20;0.20;;;;;;;;;;5093337;28;20043;-74
2024/01/10 04:39:17;;;;;;;0.10;0.10;;;;;;;;;;5093302;28;20024;-73
2024/01/10 04:41:42;;;;;;;0.20;0.20;;;;;;;;;;5093316;28;20035;-74
2024/01/10 04:44:08;;;;;;;0.10;0.10;;;;;;;;;;5075465;28;20403;-74
2024/01/10 04:46:34;;;;;;;0.10;0.10;;;;;;;;;;5093201;28;20056;-72
2024/01/10 04:49:00;;;;;;;0.17;0.17;;;;;;;;;;5092717;28;20028;-74
2024/01/10 04:51:25;;;;;;;0.10;0.10;;;;;;;;;;5092253;28;20068;-80
2024/01/10 04:53:51;;;;;;;0.10;0.10;;;;;;;;;;5094082;28;20036;-75
2024/01/10 04:56:17;;;;;;;0.15;0.15;;;;;;;;;;5093142;28;20028;-75
2024/01/10 04:58:43;;;;;;;0.10;0.10;;;;;;;;;;5091673;28;20033;-75
2024/01/10 05:01:08;;;;;;;0.10;0.10;;;;;;;;;;5085447;28;20090;-74
2024/01/10 05:03:34;;;;;;;0.17;0.17;;;;;;;;;;5072611;28;20035;-76
2024/01/10 05:05:59;;;;;;;0.10;0.10;;;;;;;;;;5072489;28;20534;-73
2024/01/10 05:08:26;;;;;;;0.20;0.20;;;;;;;;;;5072517;28;20052;-75
2024/01/10 05:10:51;;;;;;;0.20;0.20;;;;;;;;;;5070981;28;20032;-74
2024/01/10 05:13:17;;;;;;;0.10;0.10;;;;;;;;;;5072486;28;20472;-73
2024/01/10 05:15:42;;;;;;;0.10;0.10;;;;;;;;;;5072289;28;20060;-76
2024/01/10 05:18:08;;;;;;;0.20;0.20;;;;;;;;;;5083860;28;20028;-74
2024/01/10 05:20:34;;;;;;;0.10;0.10;;;;;;;;;;5092468;28;20038;-74
2024/01/10 05:23:01;;;;;;;0.10;0.10;;;;;;;;;;5092413;28;20023;-74
2024/01/10 05:25:27;;;;;;;0.20;0.20;;;;;;;;;;5092354;28;20028;-75
2024/01/10 05:27:53;;;;;;;0.10;0.10;;;;;;;;;;5092531;28;20035;-74
2024/01/10 05:30:18;;;;;;;0.20;0.20;;;;;;;;;;5092166;28;20080;-72
2024/01/10 05:32:44;;;;;;;0.10;0.10;;;;;;;;;;5091683;28;20467;-74
2024/01/10 05:35:10;;;;;;;0.10;0.10;;;;;;;;;;5092601;28;20074;-75
2024/01/10 05:37:36;;;;;;;0.10;0.10;;;;;;;;;;5074437;28;20036;-73
2024/01/10 05:40:01;;;;;;;0.20;0.20;;;;;;;;;;5092464;28;20415;-73
2024/01/10 05:42:27;;;;;;;0.10;0.10;;;;;;;;;;5092181;28;20361;-73
2024/01/10 05:44:53;;;;;;;0.10;0.10;;;;;;;;;;5091789;28;20105;-74
2024/01/10 05:47:19;;;;;;;0.15;0.15;;;;;;;;;;5092087;28;20058;-74
2024/01/10 05:49:44;;;;;;;0.10;0.10;;;;;;;;;;5091940;28;20048;-72
2024/01/10 05:52:10;;;;;;;0.20;0.20;;;;;;;;;;5092067;28;20423;-74
2024/01/10 05:54:35;;;;;;;0.10;0.10;;;;;;;;;;5090545;28;20410;-74
2024/01/10 05:57:02;;;;;;;0.17;0.17;;;;;;;;;;5091571;28;20480;-73
2024/01/10 05:59:28;;;;;;;0.10;0.10;;;;;;;;;;5092515;28;20086;-72
2024/01/10 06:01:54;;;;;;;6.82;3.60;;;;;;;;;;5089124;28;20096;-74
2024/01/10 06:04:19;;;;;;;0.10;0.10;;;;;;;;;;5091468;28;20115;-74
2024/01/10 06:06:45;;;;;;;0.15;0.15;;;;;;;;;;5091038;28;20133;-73
2024/01/10 06:09:11;;;;;;;1.48;0.75;;;;;;;;;;5090033;28;20086;-73
2024/01/10 06:11:40;;;;;;;0.10;0.10;;;;;;;;;;5078418;28;20111;-73
2024/01/10 06:14:06;;;;;;;3.05;2.90;;;;;;;;;;5071068;28;20041;-73
2024/01/10 06:16:32;;;;;;;0.20;0.20;;;;;;;;;;5070384;28;20477;-73
2024/01/10 06:18:57;;;;;;;0.10;0.10;;;;;;;;;;5078478;28;20020;-73
2024/01/10 06:21:23;;;;;;;0.20;0.20;;;;;;;;;;5087564;28;20020;-73
2024/01/10 06:23:48;;;;;;;0.10;0.10;;;;;;;;;;5089012;28;20082;-75
2024/01/10 06:26:14;;;;;;;0.10;0.10;;;;;;;;;;5089536;28;20027;-74
2024/01/10 06:28:41;;;;;;;0.10;0.10;;;;;;;;;;5090070;28;20031;-75
2024/01/10 06:31:06;;;;;;;3.95;3.65;;;;;;;;;;5089980;28;20045;-74
2024/01/10 06:33:32;;;;;;;0.20;0.20;;;;;;;;;;5089351;28;20032;-74
2024/01/10 06:35:58;;;;;;;0.20;0.20;;;;;;;;;;5089531;28;20028;-76
2024/01/10 06:38:24;;;;;;;0.10;0.10;;;;;;;;;;5072420;28;20073;-75
2024/01/10 06:40:50;;;;;;;0.10;0.10;;;;;;;;;;5085061;28;20473;-74
2024/01/10 06:43:16;;;;;;;0.17;0.17;;;;;;;;;;5079490;28;20372;-73
2024/01/10 06:45:42;;;;;;;0.13;0.13;;;;;;;;;;5070628;28;20043;-76
2024/01/10 06:48:08;;;;;;;0.10;0.10;;;;;;;;;;5070969;28;20032;-75
2024/01/10 06:50:34;;;;;;;1.60;1.55;;;;;;;;;;5053194;28;20052;-73
2024/01/10 06:52:59;;;;;;;0.47;0.47;;;;;;;;;;5069481;28;20081;-74
2024/01/10 06:55:26;;;;;;;0.20;0.20;;;;;;;;;;5084619;28;20035;-76
2024/01/10 06:57:52;;;;;;;0.17;0.17;;;;;;;;;;5090126;28;20022;-75
2024/01/10 07:00:20;;;;;;;0.10;0.10;;;;;;;;;;5090224;28;20047;-75
2024/01/10 07:02:45;;;;;;;1.27;1.27;;;;;;;;;;5088840;28;20016;-74
2024/01/10 07:05:11;;;;;;;0.57;0.57;;;;;;;;;;5088720;28;20479;-74
2024/01/10 07:07:37;;;;;;;0.10;0.10;;;;;;;;;;5090410;28;20032;-74
2024/01/10 07:10:05;;;;;;;0.20;0.20;;;;;;;;;;5088556;28;20032;-74
2024/01/10 07:12:31;;;;;;;0.10;0.10;;;;;;;;;;5088497;28;20020;-74
2024/01/10 07:14:58;;;;;;;0.17;0.17;;;;;;;;;;5083062;28;20023;-74
2024/01/10 07:17:25;;;;;;;0.10;0.10;;;;;;;;;;5087601;28;20384;-72
2024/01/10 07:19:50;;;;;;;0.20;0.20;;;;;;;;;;5072230;28;20028;-74
2024/01/10 07:22:19;;;;;;;0.10;0.10;;;;;;;;;;5085073;28;20040;-74
2024/01/10 07:24:46;;;;;;;0.10;0.10;;;;;;;;;;5085944;28;20032;-72
2024/01/10 07:27:14;;;;;;;0.10;0.10;;;;;;;;;;5070026;28;20111;-76
2024/01/10 07:29:40;;;;;;;0.17;0.17;;;;;;;;;;5083229;28;20065;-73
2024/01/10 07:32:09;;;;;;;0.10;0.10;;;;;;;;;;5087628;28;20028;-73
2024/01/10 07:34:35;;;;;;;0.20;0.20;;;;;;;;;;5087526;28;20085;-72
2024/01/10 07:37:00;;;;;;;0.10;0.10;;;;;;;;;;5086588;28;20024;-74
2024/01/10 07:39:26;;;;;;;0.10;0.10;;;;;;;;;;5088126;28;20024;-75
2024/01/10 07:41:51;;;;;;;0.10;0.10;;;;;;;;;;5087114;28;20027;-74
2024/01/10 07:44:17;;;;;;;0.25;0.25;;;;;;;;;;5088442;28;20124;-74
2024/01/10 07:46:43;;;;;;;0.10;0.10;;;;;;;;;;5089565;28;20022;-77
2024/01/10 07:49:08;;;;;;;0.15;0.15;;;;;;;;;;5088955;28;20391;-73
2024/01/10 07:51:35;;;;;;;0.15;0.15;;;;;;;;;;5089070;28;20203;-75
2024/01/10 07:54:03;;;;;;;0.20;0.20;;;;;;;;;;5089119;28;20099;-74
2024/01/10 07:56:30;;;;;;;0.10;0.10;;;;;;;;;;5088576;28;20028;-75
2024/01/10 07:58:55;;;;;;;0.10;0.10;;;;;;;;;;5086681;28;20180;-75
2024/01/10 08:01:21;;;;;;;0.10;0.10;;;;;;;;;;5088494;28;20387;-75
2024/01/10 08:03:47;;;;;;;0.20;0.20;;;;;;;;;;5086255;28;20058;-73
2024/01/10 08:06:13;;;;;;;0.10;0.10;;;;;;;;;;5086965;28;20101;-73
2024/01/10 08:08:39;;;;;;;0.40;0.40;;;;;;;;;;5087207;28;20024;-76
2024/01/10 08:11:05;;;;;;;0.75;0.47;;;;;;;;;;5087937;28;20483;-75
2024/01/10 08:13:31;;;;;;;0.43;0.43;;;;;;;;;;5087280;28;20035;-76
2024/01/10 08:15:57;;;;;;;0.10;0.10;;;;;;;;;;5086571;28;20028;-77
2024/01/10 08:18:23;;;;;;;0.10;0.10;;;;;;;;;;5085664;28;20063;-72
2024/01/10 08:20:49;;;;;;;0.10;0.10;;;;;;;;;;5084104;28;20024;-72
2024/01/10 08:23:15;;;;;;;0.10;0.10;;;;;;;;;;5086242;28;20367;-75
2024/01/10 08:25:43;;;;;;;0.20;0.20;;;;;;;;;;5083656;28;20016;-73
2024/01/10 08:28:10;;;;;;;0.10;0.10;;;;;;;;;;5087711;28;20054;-73
2024/01/10 08:30:35;;;;;;;0.10;0.10;;;;;;;;;;5081513;28;20029;-75
2024/01/10 08:33:04;;;;;;;0.10;0.10;;;;;;;;;;5081220;28;20029;-75
2024/01/10 08:35:30;;;;;;;3.10;2.90;;;;;;;;;;5086606;28;20025;-74
2024/01/10 08:37:55;;;;;;;0.10;0.10;;;;;;;;;;5086555;28;20066;-74
2024/01/10 08:40:25;;;;;;;0.32;0.32;;;;;;;;;;5086500;28;20032;-75
2024/01/10 08:42:51;;;;;;;0.10;0.10;;;;;;;;;;5086721;28;20024;-75
2024/01/10 08:45:17;;;;;;;0.10;0.10;;;;;;;;;;5086994;28;20024;-80
2024/01/10 08:47:43;;;;;;;0.10;0.10;;;;;;;;;;5088170;28;20028;-75
2024/01/10 08:50:10;;;;;;;0.10;0.10;;;;;;;;;;5088516;28;20048;-82
2024/01/10 08:52:39;;;;;;;0.20;0.20;;;;;;;;;;5086481;28;20031;-83
2024/01/10 08:55:08;;;;;;;0.10;0.10;;;;;;;;;;5087207;28;20509;-78
2024/01/10 08:57:34;;;;;;;0.10;0.10;;;;;;;;;;5092135;28;20024;-80
2024/01/10 08:59:59;;;;;;;0.10;0.10;;;;;;;;;;5091819;28;20020;-80
2024/01/10 09:02:27;;;;;;;0.10;0.10;;;;;;;;;;5090303;28;20526;-80
2024/01/10 09:04:53;;;;;;;0.30;0.30;;;;;;;;;;5091202;28;20020;-79
2024/01/10 09:07:19;;;;;;;0.10;0.10;;;;;;;;;;5091304;28;20024;-82
2024/01/10 09:09:45;;;;;;;0.10;0.10;;;;;;;;;;5092247;28;20057;-80
2024/01/10 09:12:11;;;;;;;0.10;0.10;;;;;;;;;;5092332;28;20119;-80
2024/01/10 09:14:37;;;;;;;2.63;2.47;;;;;;;;;;5090477;28;20026;-81
2024/01/10 09:17:04;;;;;;;0.10;0.10;;;;;;;;;;5089918;28;20089;-80
2024/01/10 09:19:31;;;;;;;0.10;0.10;;;;;;;;;;5089129;28;20020;-78
2024/01/10 09:21:58;;;;;;;0.20;0.20;;;;;;;;;;5070339;28;20031;-80
2024/01/10 09:24:26;;;;;;;0.10;0.10;;;;;;;;;;5071887;28;20127;-82
2024/01/10 09:26:53;;;;;;;0.15;0.15;;;;;;;;;;5081333;28;20475;-79
2024/01/10 09:29:19;;;;;;;0.10;0.10;;;;;;;;;;5091948;28;20024;-78
2024/01/10 09:31:45;;;;;;;0.13;0.13;;;;;;;;;;5091706;28;20114;-80
2024/01/10 09:34:11;;;;;;;0.10;0.10;;;;;;;;;;5091927;28;20031;-77
2024/01/10 09:36:37;;;;;;;0.10;0.10;;;;;;;;;;5091824;28;20459;-77
2024/01/10 09:39:05;;;;;;;0.40;0.40;;;;;;;;;;5089852;28;20035;-79
2024/01/10 09:41:34;;;;;;;0.20;0.20;;;;;;;;;;5087005;28;20028;-79
2024/01/10 09:44:00;;;;;;;0.20;0.20;;;;;;;;;;5084694;28;20028;-76
2024/01/10 09:46:29;;;;;;;0.10;0.10;;;;;;;;;;5091527;28;20093;-77
2024/01/10 09:48:55;;;;;;;0.10;0.10;;;;;;;;;;5073071;28;20036;-77
2024/01/10 09:51:21;;;;;;;0.10;0.10;;;;;;;;;;5091638;28;20325;-76
2024/01/10 09:53:49;;;;;;;0.10;0.10;;;;;;;;;;5091249;28;20462;-76
2024/01/10 09:56:15;;;;;;;0.30;0.30;;;;;;;;;;5090109;28;20107;-77
2024/01/10 09:58:43;;;;;;;0.10;0.10;;;;;;;;;;5091253;28;20138;-77
2024/01/10 10:01:09;;;;;;;0.20;0.20;;;;;;;;;;5089823;28;20387;-77
2024/01/10 10:03:37;;;;;;;0.20;0.20;;;;;;;;;;5090838;28;20024;-79
2024/01/10 10:06:04;;;;;;;0.10;0.10;;;;;;;;;;5091251;28;20062;-76
2024/01/10 10:08:30;;;;;;;0.10;0.10;;;;;;;;;;5090913;28;20069;-76
2024/01/10 10:10:56;;;;;;;0.10;0.10;;;;;;;;;;5080979;28;20074;-76
2024/01/10 10:13:25;;;;;;;0.22;0.22;;;;;;;;;;5070691;28;20050;-77
2024/01/10 10:16:03;;;;;;;0.10;0.10;;;;;;;;;;5084995;28;20486;-77
2024/01/10 10:18:30;;;;;;;0.13;0.13;;;;;;;;;;5089616;28;20032;-77
2024/01/10 10:21:12;;;;;;;0.10;0.10;;;;;;;;;;5090928;28;20107;-75
2024/01/10 10:23:42;;;;;;;0.10;0.10;;;;;;;;;;5090824;28;20360;-81
2024/01/10 10:26:13;;;;;;;0.10;0.10;;;;;;;;;;5090951;28;20024;-77
2024/01/10 10:28:40;;;;;;;0.10;0.10;;;;;;;;;;5088875;28;20051;-85
2024/01/10 10:31:06;;;;;;;0.10;0.10;;;;;;;;;;5089609;28;20048;-76
2024/01/10 10:33:32;;;;;;;0.10;0.10;;;;;;;;;;5090831;28;20035;-77
2024/01/10 10:35:58;;;;;;;0.15;0.15;;;;;;;;;;5090726;28;20041;-77
2024/01/10 10:38:24;;;;;;;0.17;0.17;;;;;;;;;;5090663;28;20028;-75
2024/01/10 10:40:51;;;;;;;3.10;2.05;;;;;;;;;;5090815;28;20443;-84
2024/01/10 10:43:19;;;;;;;0.32;0.32;;;;;;;;;;5090696;28;20032;-79
2024/01/10 10:45:48;;;;;;;0.10;0.10;;;;;;;;;;5089603;28;20098;-79
2024/01/10 10:48:20;;;;;;;0.20;0.20;;;;;;;;;;5089713;28;20024;-75
2024/01/10 10:51:08;;;;;;;0.10;0.10;;;;;;;;;;5089326;28;20060;-76
2024/01/10 10:53:39;;;;;;;0.10;0.10;;;;;;;;;;5090759;28;20035;-78
2024/01/10 10:56:07;;;;;;;0.10;0.10;;;;;;;;;;5091100;28;20064;-77
2024/01/10 10:58:37;;;;;;;0.13;0.13;;;;;;;;;;5090281;28;20379;-78
2024/01/10 11:01:06;;;;;;;0.10;0.10;;;;;;;;;;5090530;28;20027;-78
2024/01/10 11:03:40;;;;;;;0.13;0.13;;;;;;;;;;5089119;28;20118;-76
2024/01/10 11:06:06;;;;;;;0.40;0.40;;;;;;;;;;5088983;28;20032;-77
2024/01/10 11:08:44;;;;;;;0.10;0.10;;;;;;;;;;5090087;28;20071;-77
2024/01/10 11:11:30;;;;;;;0.10;0.10;;;;;;;;;;5088919;28;20483;-77
2024/01/10 11:14:15;;;;;;;0.10;0.10;;;;;;;;;;5089949;28;20106;-76
2024/01/10 11:16:41;;;;;;;0.20;0.20;;;;;;;;;;5089147;28;20107;-76
2024/01/10 11:19:18;;;;;;;0.17;0.17;;;;;;;;;;5089687;28;20115;-78
2024/01/10 11:21:53;;;;;;;0.10;0.10;;;;;;;;;;5071876;28;20043;-76
2024/01/10 11:24:19;;;;;;;0.10;0.10;;;;;;;;;;5090013;28;20107;-77
2024/01/10 11:26:45;;;;;;;0.10;0.10;;;;;;;;;;5089599;28;20115;-76
2024/01/10 11:29:12;;;;;;;0.10;0.10;;;;;;;;;;5088444;28;20028;-77
2024/01/10 11:31:38;;;;;;;0.10;0.10;;;;;;;;;;5089591;28;20058;-75
2024/01/10 11:34:05;;;;;;;0.25;0.25;;;;;;;;;;5089864;28;20027;-75
2024/01/10 11:36:31;;;;;;;0.10;0.10;;;;;;;;;;5090001;28;20024;-77
2024/01/10 11:38:59;;;;;;;0.10;0.10;;;;;;;;;;5089419;28;20103;-76
2024/01/10 11:41:35;;;;;;;0.10;0.10;;;;;;;;;;5084391;28;20476;-82
2024/01/10 11:44:10;;;;;;;5.47;2.50;;;;;;;;;;5069135;28;20025;-75
2024/01/10 11:46:37;;;;;;;0.10;0.10;;;;;;;;;;5069255;28;20028;-78
2024/01/10 11:49:06;;;;;;;0.10;0.10;;;;;;;;;;5068842;28;20024;-79
2024/01/10 11:51:32;;;;;;;0.10;0.10;;;;;;;;;;5050512;28;20082;-78
2024/01/10 11:53:58;;;;;;;0.10;0.10;;;;;;;;;;5069152;28;20036;-76
2024/01/10 11:56:37;;;;;;;0.10;0.10;;;;;;;;;;5069023;28;20025;-76
2024/01/10 11:59:08;;;;;;;0.10;0.10;;;;;;;;;;5069111;28;20480;-77
2024/01/10 12:01:35;;;;;;;3.28;3.05;;;;;;;;;;5068686;28;20494;-78
2024/01/10 12:04:02;;;;;;;0.10;0.10;;;;;;;;;;5088764;28;20016;-76
2024/01/10 12:06:28;;;;;;;0.22;0.22;;;;;;;;;;5088147;28;20082;-80
2024/01/10 12:08:53;;;;;;;0.65;0.63;;;;;;;;;;5089045;28;20016;-78
2024/01/10 12:11:19;;;;;;;0.15;0.15;;;;;;;;;;5089492;28;20035;-75
2024/01/10 12:13:45;;;;;;;0.10;0.10;;;;;;;;;;5089608;28;20024;-75
2024/01/10 12:16:14;;;;;;;3.35;0.60;;;;;;;;;;5089115;28;20103;-77
2024/01/10 12:18:40;;;;;;;0.10;0.10;;;;;;;;;;5089236;28;20107;-76
2024/01/10 12:21:08;;;;;;;0.10;0.10;;;;;;;;;;5087824;28;20260;-75
2024/01/10 12:23:35;;;;;;;0.10;0.10;;;;;;;;;;5089742;28;20044;-77
2024/01/10 12:26:07;;;;;;;0.10;0.10;;;;;;;;;;5088335;28;20028;-79
2024/01/10 12:28:34;;;;;;;0.10;0.10;;;;;;;;;;5092485;28;20554;-76
2024/01/10 12:31:00;;;;;;;0.73;0.73;;;;;;;;;;5092930;28;20036;-77
2024/01/10 12:33:25;;;;;;;0.55;0.55;;;;;;;;;;5093914;28;20107;-74
2024/01/10 12:36:04;;;;;;;0.10;0.10;;;;;;;;;;5092988;28;20495;-76
2024/01/10 12:38:31;;;;;;;0.10;0.10;;;;;;;;;;5093194;28;20028;-81
2024/01/10 12:40:57;;;;;;;0.10;0.10;;;;;;;;;;5091953;28;20081;-77
2024/01/10 12:43:23;;;;;;;0.98;0.98;;;;;;;;;;5092424;28;20110;-75
2024/01/10 12:46:02;;;;;;;0.10;0.10;;;;;;;;;;5094619;28;20016;-77
2024/01/10 12:48:27;;;;;;;0.10;0.10;;;;;;;;;;5091792;28;20028;-78
2024/01/10 12:50:53;;;;;;;0.10;0.10;;;;;;;;;;5092452;28;20384;-76
2024/01/10 12:53:19;;;;;;;0.10;0.10;;;;;;;;;;5092494;28;20031;-76
2024/01/10 12:55:46;;;;;;;0.10;0.10;;;;;;;;;;5092614;28;20024;-76
2024/01/10 12:58:12;;;;;;;0.10;0.10;;;;;;;;;;5091399;28;20060;-78
2024/01/10 13:00:39;;;;;;;0.10;0.10;;;;;;;;;;5092384;28;20126;-78
2024/01/10 13:03:05;;;;;;;0.10;0.10;;;;;;;;;;5090978;28;20483;-77
2024/01/10 13:05:31;;;;;;;0.10;0.10;;;;;;;;;;5074472;28;20032;-75
2024/01/10 13:07:57;;;;;;;0.10;0.10;;;;;;;;;;5092450;28;20043;-76
2024/01/10 13:10:23;;;;;;;0.20;0.20;;;;;;;;;;5092238;28;20034;-77
2024/01/10 13:12:48;;;;;;;0.20;0.20;;;;;;;;;;5092459;28;20463;-76
2024/01/10 13:15:14;;;;;;;0.10;0.10;;;;;;;;;;5092266;28;20051;-78
2024/01/10 13:17:40;;;;;;;0.10;0.10;;;;;;;;;;5092062;28;20031;-77
2024/01/10 13:20:06;;;;;;;0.10;0.10;;;;;;;;;;5092720;28;20032;-75
2024/01/10 13:22:31;;;;;;;0.10;0.10;;;;;;;;;;5091850;28;20095;-76
2024/01/10 13:24:57;;;;;;;0.10;0.10;;;;;;;;;;5090664;28;20103;-78
2024/01/10 13:27:23;;;;;;;0.93;0.93;;;;;;;;;;5090607;28;20040;-76
2024/01/10 13:29:49;;;;;;;0.10;0.10;;;;;;;;;;5089826;28;20020;-79
2024/01/10 13:32:15;;;;;;;0.10;0.10;;;;;;;;;;5089936;28;20040;-77
2024/01/10 13:34:41;;;;;;;0.80;0.57;;;;;;;;;;5089755;28;20024;-77
2024/01/10 13:37:07;;;;;;;0.20;0.20;;;;;;;;;;5089656;28;20061;-77
2024/01/10 13:39:33;;;;;;;0.50;0.50;;;;;;;;;;5088648;28;20028;-78
2024/01/10 13:41:59;;;;;;;1.40;1.30;;;;;;;;;;5089303;28;20046;-79
2024/01/10 13:44:24;;;;;;;0.13;0.13;;;;;;;;;;5089980;28;20567;-80
2024/01/10 13:46:51;;;;;;;0.30;0.30;;;;;;;;;;5089584;28;20107;-79
2024/01/10 13:49:16;;;;;;;0.10;0.10;;;;;;;;;;5089387;28;20070;-77
2024/01/10 13:51:44;;;;;;;0.55;0.55;;;;;;;;;;5088743;28;20480;-76
2024/01/10 13:54:10;;;;;;;0.43;0.43;;;;;;;;;;5088664;28;20032;-78
2024/01/10 13:56:35;;;;;;;0.10;0.10;;;;;;;;;;5089883;28;20039;-76
2024/01/10 13:59:01;;;;;;;0.10;0.10;;;;;;;;;;5089704;28;20027;-84
2024/01/10 14:01:27;;;;;;;0.63;0.63;;;;;;;;;;5089824;28;20039;-76
2024/01/10 14:03:52;;;;;;;0.10;0.10;;;;;;;;;;5088976;28;20417;-77
2024/01/10 14:06:18;;;;;;;0.10;0.10;;;;;;;;;;5089647;28;20078;-78
2024/01/10 14:08:46;;;;;;;0.10;0.10;;;;;;;;;;5089234;28;20028;-80
2024/01/10 14:11:12;;;;;;;0.10;0.10;;;;;;;;;;5088935;28;20478;-83
2024/01/10 14:13:38;;;;;;;0.10;0.10;;;;;;;;;;5089562;28;20158;-77
2024/01/10 14:16:04;;;;;;;0.15;0.15;;;;;;;;;;5091556;28;20456;-76
2024/01/10 14:18:29;;;;;;;0.10;0.10;;;;;;;;;;5091631;28;20082;-76
2024/01/10 14:20:55;;;;;;;0.10;0.10;;;;;;;;;;5091449;28;20082;-75
2024/01/10 14:23:21;;;;;;;0.10;0.10;;;;;;;;;;5091560;28;20024;-77
2024/01/10 14:25:47;;;;;;;0.10;0.10;;;;;;;;;;5091558;28;20051;-76
2024/01/10 14:28:12;;;;;;;0.10;0.10;;;;;;;;;;5091352;28;20024;-78
2024/01/10 14:30:38;;;;;;;0.10;0.10;;;;;;;;;;5091230;28;20047;-75
2024/01/10 14:33:04;;;;;;;0.82;0.82;;;;;;;;;;5089991;28;20073;-77
2024/01/10 14:35:30;;;;;;;0.20;0.20;;;;;;;;;;5091209;28;20059;-78
2024/01/10 14:37:56;;;;;;;0.10;0.10;;;;;;;;;;5073398;28;20024;-76
2024/01/10 14:40:23;;;;;;;0.22;0.22;;;;;;;;;;5089924;28;20040;-76